sensor_id;sensor_type;location;lat;lon;timestamp;pressure;altitude;pressure_sealevel;temperature;humidity
21623;BME280;10973;46.706;12.340;2022-07-29T00:01:08;87697.28;;;18.62;63.28
21623;BME280;10973;46.706;12.340;2022-07-29T00:03:46;87694.88;;;18.68;63.09
21623;BME280;10973;46.706;12.340;2022-07-29T00:06:15;87689.53;;;18.68;62.92
21623;BME280;10973;46.706;12.340;2022-07-29T00:08:43;87686.88;;;18.68;63.00
21623;BME280;10973;46.706;12.340;2022-07-29T00:11:10;87684.22;;;18.68;63.13
21623;BME280;10973;46.706;12.340;2022-07-29T00:13:37;87677.38;;;18.67;62.95
21623;BME280;10973;46.706;12.340;2022-07-29T00:16:05;87666.63;;;18.70;62.62
21623;BME280;10973;46.706;12.340;2022-07-29T00:18:32;87676.19;;;18.68;62.75
21623;BME280;10973;46.706;12.340;2022-07-29T00:20:59;87672.84;;;18.64;62.93
21623;BME280;10973;46.706;12.340;2022-07-29T00:23:27;87675.94;;;18.62;63.26
21623;BME280;10973;46.706;12.340;2022-07-29T00:25:55;87667.59;;;18.60;63.08
21623;BME280;10973;46.706;12.340;2022-07-29T00:28:23;87665.66;;;18.61;63.31
21623;BME280;10973;46.706;12.340;2022-07-29T00:30:50;87671.00;;;18.61;63.31
21623;BME280;10973;46.706;12.340;2022-07-29T00:33:17;87660.31;;;18.61;62.91
21623;BME280;10973;46.706;12.340;2022-07-29T00:35:44;87665.66;;;18.61;62.84
21623;BME280;10973;46.706;12.340;2022-07-29T00:38:14;87660.25;;;18.64;62.90
21623;BME280;10973;46.706;12.340;2022-07-29T00:40:43;87654.16;;;18.64;63.10
21623;BME280;10973;46.706;12.340;2022-07-29T00:43:12;87650.25;;;18.68;63.15
21623;BME280;10973;46.706;12.340;2022-07-29T00:45:41;87640.00;;;18.67;62.85
21623;BME280;10973;46.706;12.340;2022-07-29T00:48:09;87630.81;;;18.68;62.98
21623;BME280;10973;46.706;12.340;2022-07-29T00:50:38;87629.66;;;18.69;62.94
21623;BME280;10973;46.706;12.340;2022-07-29T00:53:07;87622.94;;;18.61;62.85
21623;BME280;10973;46.706;12.340;2022-07-29T00:55:35;87634.38;;;18.61;63.01
21623;BME280;10973;46.706;12.340;2022-07-29T00:58:03;87642.81;;;18.60;62.94
21623;BME280;10973;46.706;12.340;2022-07-29T01:00:31;87637.81;;;18.62;62.61
21623;BME280;10973;46.706;12.340;2022-07-29T01:02:58;87630.94;;;18.61;62.92
21623;BME280;10973;46.706;12.340;2022-07-29T01:05:28;87626.84;;;18.56;62.61
21623;BME280;10973;46.706;12.340;2022-07-29T01:08:15;87637.50;;;18.56;62.67
21623;BME280;10973;46.706;12.340;2022-07-29T01:10:45;87635.94;;;18.59;62.88
21623;BME280;10973;46.706;12.340;2022-07-29T01:13:15;87646.63;;;18.59;62.70
21623;BME280;10973;46.706;12.340;2022-07-29T01:16:01;87665.63;;;18.41;62.47
21623;BME280;10973;46.706;12.340;2022-07-29T01:18:40;87668.38;;;18.14;61.33
21623;BME280;10973;46.706;12.340;2022-07-29T01:30:26;87681.00;;;17.64;62.88
21623;BME280;10973;46.706;12.340;2022-07-29T01:33:00;87676.81;;;17.63;62.67
21623;BME280;10973;46.706;12.340;2022-07-29T01:35:41;87678.44;;;17.57;62.62
21623;BME280;10973;46.706;12.340;2022-07-29T01:38:28;87693.00;;;17.49;62.52
21623;BME280;10973;46.706;12.340;2022-07-29T01:41:02;87688.06;;;17.47;62.89
21623;BME280;10973;46.706;12.340;2022-07-29T01:43:43;87693.03;;;17.45;62.17
21623;BME280;10973;46.706;12.340;2022-07-29T01:46:21;87684.69;;;17.43;62.45
21623;BME280;10973;46.706;12.340;2022-07-29T01:49:06;87684.75;;;17.40;62.12
21623;BME280;10973;46.706;12.340;2022-07-29T01:51:50;87693.91;;;17.39;61.89
21623;BME280;10973;46.706;12.340;2022-07-29T01:54:25;87687.78;;;17.42;61.89
21623;BME280;10973;46.706;12.340;2022-07-29T01:56:56;87691.13;;;17.46;61.76
21623;BME280;10973;46.706;12.340;2022-07-29T01:59:26;87686.94;;;17.45;61.28
21623;BME280;10973;46.706;12.340;2022-07-29T02:01:55;87689.22;;;17.46;61.04
21623;BME280;10973;46.706;12.340;2022-07-29T02:04:26;87681.16;;;17.50;60.94
21623;BME280;10973;46.706;12.340;2022-07-29T02:07:02;87683.06;;;17.49;61.13
21623;BME280;10973;46.706;12.340;2022-07-29T02:09:32;87681.16;;;17.50;60.78
21623;BME280;10973;46.706;12.340;2022-07-29T02:12:02;87675.50;;;17.48;60.66
21623;BME280;10973;46.706;12.340;2022-07-29T02:14:37;87679.31;;;17.47;61.47
21623;BME280;10973;46.706;12.340;2022-07-29T02:17:05;87681.50;;;17.55;61.50
21623;BME280;10973;46.706;12.340;2022-07-29T02:19:34;87672.75;;;17.55;62.20
21623;BME280;10973;46.706;12.340;2022-07-29T02:22:05;87671.63;;;17.56;62.46
21623;BME280;10973;46.706;12.340;2022-07-29T02:24:37;87667.84;;;17.53;62.47
21623;BME280;10973;46.706;12.340;2022-07-29T02:27:07;87669.69;;;17.56;63.21
21623;BME280;10973;46.706;12.340;2022-07-29T02:29:36;87674.28;;;17.56;63.45
21623;BME280;10973;46.706;12.340;2022-07-29T02:32:05;87666.66;;;17.54;63.29
21623;BME280;10973;46.706;12.340;2022-07-29T02:34:37;87677.66;;;17.56;63.02
21623;BME280;10973;46.706;12.340;2022-07-29T02:37:05;87667.38;;;17.58;63.18
21623;BME280;10973;46.706;12.340;2022-07-29T02:39:36;87660.13;;;17.59;63.47
21623;BME280;10973;46.706;12.340;2022-07-29T02:42:11;87654.78;;;17.59;63.54
21623;BME280;10973;46.706;12.340;2022-07-29T02:44:39;87650.63;;;17.58;63.86
21623;BME280;10973;46.706;12.340;2022-07-29T02:47:27;87643.03;;;17.56;63.43
21623;BME280;10973;46.706;12.340;2022-07-29T02:50:25;87644.19;;;17.55;63.42
21623;BME280;10973;46.706;12.340;2022-07-29T02:53:24;87638.13;;;17.55;63.24
21623;BME280;10973;46.706;12.340;2022-07-29T02:56:00;87634.69;;;17.54;63.51
21623;BME280;10973;46.706;12.340;2022-07-29T02:58:41;87639.66;;;17.52;63.63
21623;BME280;10973;46.706;12.340;2022-07-29T03:01:24;87639.28;;;17.50;63.96
21623;BME280;10973;46.706;12.340;2022-07-29T03:03:54;87643.09;;;17.49;63.60
21623;BME280;10973;46.706;12.340;2022-07-29T03:06:25;87644.66;;;17.47;63.27
21623;BME280;10973;46.706;12.340;2022-07-29T03:09:10;87646.59;;;17.46;63.59
21623;BME280;10973;46.706;12.340;2022-07-29T03:11:41;87633.66;;;17.45;63.48
21623;BME280;10973;46.706;12.340;2022-07-29T03:14:18;87633.31;;;17.43;63.42
21623;BME280;10973;46.706;12.340;2022-07-29T03:16:48;87628.81;;;17.40;63.48
21623;BME280;10973;46.706;12.340;2022-07-29T03:19:16;87639.06;;;17.41;63.21
21623;BME280;10973;46.706;12.340;2022-07-29T03:21:44;87646.63;;;17.43;63.02
21623;BME280;10973;46.706;12.340;2022-07-29T03:24:30;87631.84;;;17.38;63.12
21623;BME280;10973;46.706;12.340;2022-07-29T03:26:58;87633.41;;;17.36;63.32
21623;BME280;10973;46.706;12.340;2022-07-29T03:29:26;87639.50;;;17.36;63.20
21623;BME280;10973;46.706;12.340;2022-07-29T03:32:03;87633.41;;;17.36;63.34
21623;BME280;10973;46.706;12.340;2022-07-29T03:34:36;87633.06;;;17.34;63.50
21623;BME280;10973;46.706;12.340;2022-07-29T03:37:05;87630.06;;;17.32;63.23
21623;BME280;10973;46.706;12.340;2022-07-29T03:39:39;87630.16;;;17.25;62.50
21623;BME280;10973;46.706;12.340;2022-07-29T03:42:11;87633.66;;;17.22;63.46
21623;BME280;10973;46.706;12.340;2022-07-29T03:44:44;87637.81;;;17.23;63.48
21623;BME280;10973;46.706;12.340;2022-07-29T03:47:14;87642.69;;;17.28;63.01
21623;BME280;10973;46.706;12.340;2022-07-29T03:49:44;87637.00;;;17.26;63.12
21623;BME280;10973;46.706;12.340;2022-07-29T03:52:13;87631.38;;;17.20;63.22
21623;BME280;10973;46.706;12.340;2022-07-29T03:54:41;87630.97;;;17.22;63.10
21623;BME280;10973;46.706;12.340;2022-07-29T03:57:11;87635.59;;;17.18;63.51
21623;BME280;10973;46.706;12.340;2022-07-29T03:59:39;87633.28;;;17.20;63.27
21623;BME280;10973;46.706;12.340;2022-07-29T04:02:11;87626.38;;;17.22;63.09
21623;BME280;10973;46.706;12.340;2022-07-29T04:04:41;87621.53;;;17.17;63.35
21623;BME280;10973;46.706;12.340;2022-07-29T04:07:13;87625.69;;;17.18;63.21
21623;BME280;10973;46.706;12.340;2022-07-29T04:09:41;87621.13;;;17.19;63.08
21623;BME280;10973;46.706;12.340;2022-07-29T04:12:09;87623.44;;;17.17;62.96
21623;BME280;10973;46.706;12.340;2022-07-29T04:14:36;87626.09;;;17.17;62.90
21623;BME280;10973;46.706;12.340;2022-07-29T04:17:04;87626.97;;;17.10;62.80
21623;BME280;10973;46.706;12.340;2022-07-29T04:19:32;87628.91;;;17.06;62.62
21623;BME280;10973;46.706;12.340;2022-07-29T04:22:00;87626.28;;;17.02;63.03
21623;BME280;10973;46.706;12.340;2022-07-29T04:24:28;87632.03;;;17.01;62.93
21623;BME280;10973;46.706;12.340;2022-07-29T04:26:55;87628.19;;;17.02;62.93
21623;BME280;10973;46.706;12.340;2022-07-29T04:29:22;87628.97;;;17.02;62.97
21623;BME280;10973;46.706;12.340;2022-07-29T04:31:50;87632.38;;;17.03;62.90
21623;BME280;10973;46.706;12.340;2022-07-29T04:34:17;87636.19;;;17.02;62.94
21623;BME280;10973;46.706;12.340;2022-07-29T04:36:45;87632.06;;;16.97;63.30
21623;BME280;10973;46.706;12.340;2022-07-29T04:39:13;87634.72;;;16.97;63.01
21623;BME280;10973;46.706;12.340;2022-07-29T04:41:46;87650.00;;;16.93;63.40
21623;BME280;10973;46.706;12.340;2022-07-29T04:44:13;87648.47;;;16.92;63.49
21623;BME280;10973;46.706;12.340;2022-07-29T04:46:43;87645.44;;;16.94;63.16
21623;BME280;10973;46.706;12.340;2022-07-29T04:49:10;87658.75;;;16.94;63.23
21623;BME280;10973;46.706;12.340;2022-07-29T04:51:37;87661.75;;;16.96;63.38
21623;BME280;10973;46.706;12.340;2022-07-29T04:54:05;87659.88;;;16.93;63.42
21623;BME280;10973;46.706;12.340;2022-07-29T04:56:32;87670.09;;;16.98;63.34
21623;BME280;10973;46.706;12.340;2022-07-29T04:58:59;87663.25;;;16.97;63.34
21623;BME280;10973;46.706;12.340;2022-07-29T05:01:26;87664.38;;;16.99;63.22
21623;BME280;10973;46.706;12.340;2022-07-29T05:03:54;87664.72;;;17.01;63.31
21623;BME280;10973;46.706;12.340;2022-07-29T05:06:26;87663.25;;;16.97;63.52
21623;BME280;10973;46.706;12.340;2022-07-29T05:08:53;87670.03;;;17.01;63.38
21623;BME280;10973;46.706;12.340;2022-07-29T05:11:21;87663.50;;;17.06;63.21
21623;BME280;10973;46.706;12.340;2022-07-29T05:13:53;87676.03;;;17.09;63.11
21623;BME280;10973;46.706;12.340;2022-07-29T05:16:20;87673.03;;;17.07;62.96
21623;BME280;10973;46.706;12.340;2022-07-29T05:18:47;87673.44;;;17.05;62.61
21623;BME280;10973;46.706;12.340;2022-07-29T05:21:15;87685.53;;;17.10;63.05
21623;BME280;10973;46.706;12.340;2022-07-29T05:23:43;87674.47;;;17.11;63.02
21623;BME280;10973;46.706;12.340;2022-07-29T05:26:10;87666.84;;;17.13;63.01
21623;BME280;10973;46.706;12.340;2022-07-29T05:28:37;87669.06;;;17.19;62.58
21623;BME280;10973;46.706;12.340;2022-07-29T05:31:05;87667.09;;;17.23;62.87
21623;BME280;10973;46.706;12.340;2022-07-29T05:33:32;87671.97;;;17.28;62.89
21623;BME280;10973;46.706;12.340;2022-07-29T05:36:06;87674.22;;;17.29;62.79
21623;BME280;10973;46.706;12.340;2022-07-29T05:38:35;87677.66;;;17.30;62.71
21623;BME280;10973;46.706;12.340;2022-07-29T05:41:04;87676.44;;;17.34;62.35
21623;BME280;10973;46.706;12.340;2022-07-29T05:43:31;87692.38;;;17.38;62.54
21623;BME280;10973;46.706;12.340;2022-07-29T05:45:59;87693.13;;;17.38;62.40
21623;BME280;10973;46.706;12.340;2022-07-29T05:48:27;87695.41;;;17.40;62.16
21623;BME280;10973;46.706;12.340;2022-07-29T05:50:55;87690.72;;;17.47;61.95
21623;BME280;10973;46.706;12.340;2022-07-29T05:53:22;87700.97;;;17.52;61.21
21623;BME280;10973;46.706;12.340;2022-07-29T05:55:50;87695.59;;;17.56;61.11
21623;BME280;10973;46.706;12.340;2022-07-29T05:58:18;87691.75;;;17.57;61.48
21623;BME280;10973;46.706;12.340;2022-07-29T06:00:45;87698.19;;;17.59;61.38
21623;BME280;10973;46.706;12.340;2022-07-29T06:03:12;87697.41;;;17.62;61.07
21623;BME280;10973;46.706;12.340;2022-07-29T06:05:39;87695.09;;;17.64;59.87
21623;BME280;10973;46.706;12.340;2022-07-29T06:08:07;87693.91;;;17.65;59.50
21623;BME280;10973;46.706;12.340;2022-07-29T06:10:37;87697.66;;;17.71;60.44
21623;BME280;10973;46.706;12.340;2022-07-29T06:13:04;87694.97;;;17.71;61.03
21623;BME280;10973;46.706;12.340;2022-07-29T06:15:32;87701.75;;;17.76;60.56
21623;BME280;10973;46.706;12.340;2022-07-29T06:17:59;87701.28;;;17.81;59.94
21623;BME280;10973;46.706;12.340;2022-07-29T06:20:31;87695.16;;;17.84;60.07
21623;BME280;10973;46.706;12.340;2022-07-29T06:22:59;87699.34;;;17.85;59.47
21623;BME280;10973;46.706;12.340;2022-07-29T06:25:27;87704.56;;;17.92;59.42
21623;BME280;10973;46.706;12.340;2022-07-29T06:27:54;87702.97;;;17.95;59.20
21623;BME280;10973;46.706;12.340;2022-07-29T06:30:22;87705.59;;;17.98;58.93
21623;BME280;10973;46.706;12.340;2022-07-29T06:32:49;87705.88;;;18.04;59.16
21623;BME280;10973;46.706;12.340;2022-07-29T06:35:16;87701.31;;;18.04;59.37
21623;BME280;10973;46.706;12.340;2022-07-29T06:38:03;87696.28;;;18.10;58.82
21623;BME280;10973;46.706;12.340;2022-07-29T06:40:51;87692.09;;;18.09;58.97
21623;BME280;10973;46.706;12.340;2022-07-29T06:43:18;87695.09;;;18.11;58.62
21623;BME280;10973;46.706;12.340;2022-07-29T06:45:45;87690.75;;;18.20;58.51
21623;BME280;10973;46.706;12.340;2022-07-29T06:48:13;87686.84;;;18.25;58.78
21623;BME280;10973;46.706;12.340;2022-07-29T06:50:40;87687.84;;;18.34;58.25
21623;BME280;10973;46.706;12.340;2022-07-29T06:53:07;87682.38;;;18.41;58.30
21623;BME280;10973;46.706;12.340;2022-07-29T06:55:34;87686.16;;;18.44;58.39
21623;BME280;10973;46.706;12.340;2022-07-29T06:58:01;87690.28;;;18.48;57.43
21623;BME280;10973;46.706;12.340;2022-07-29T07:00:29;87689.78;;;18.53;57.76
21623;BME280;10973;46.706;12.340;2022-07-29T07:02:56;87690.84;;;18.60;57.99
21623;BME280;10973;46.706;12.340;2022-07-29T07:05:23;87679.28;;;18.66;57.69
21623;BME280;10973;46.706;12.340;2022-07-29T07:07:50;87676.47;;;18.73;56.93
21623;BME280;10973;46.706;12.340;2022-07-29T07:10:18;87680.59;;;18.78;57.61
21623;BME280;10973;46.706;12.340;2022-07-29T07:12:45;87680.13;;;18.83;57.40
21623;BME280;10973;46.706;12.340;2022-07-29T07:15:13;87676.59;;;18.86;57.00
21623;BME280;10973;46.706;12.340;2022-07-29T07:17:40;87673.47;;;18.91;57.22
21623;BME280;10973;46.706;12.340;2022-07-29T07:20:08;87663.78;;;18.97;56.44
21623;BME280;10973;46.706;12.340;2022-07-29T07:22:35;87677.00;;;19.04;56.17
21623;BME280;10973;46.706;12.340;2022-07-29T07:25:05;87667.38;;;19.10;55.96
21623;BME280;10973;46.706;12.340;2022-07-29T07:27:33;87665.78;;;19.12;55.35
21623;BME280;10973;46.706;12.340;2022-07-29T07:30:02;87661.19;;;19.13;54.82
21623;BME280;10973;46.706;12.340;2022-07-29T07:32:35;87663.44;;;19.14;54.88
21623;BME280;10973;46.706;12.340;2022-07-29T07:35:07;87666.78;;;19.18;54.58
21623;BME280;10973;46.706;12.340;2022-07-29T07:37:36;87663.69;;;19.20;55.01
21623;BME280;10973;46.706;12.340;2022-07-29T07:40:04;87672.81;;;19.22;55.80
21623;BME280;10973;46.706;12.340;2022-07-29T07:42:32;87671.56;;;19.27;55.58
21623;BME280;10973;46.706;12.340;2022-07-29T07:44:59;87672.19;;;19.35;55.85
21623;BME280;10973;46.706;12.340;2022-07-29T07:47:43;87675.97;;;19.37;55.01
21623;BME280;10973;46.706;12.340;2022-07-29T07:50:11;87675.13;;;19.40;54.86
21623;BME280;10973;46.706;12.340;2022-07-29T07:52:51;87672.56;;;19.37;54.61
21623;BME280;10973;46.706;12.340;2022-07-29T07:55:20;87675.41;;;19.46;54.85
21623;BME280;10973;46.706;12.340;2022-07-29T07:57:47;87671.50;;;19.50;54.89
21623;BME280;10973;46.706;12.340;2022-07-29T08:00:16;87667.16;;;19.56;54.76
21623;BME280;10973;46.706;12.340;2022-07-29T08:02:44;87675.16;;;19.56;54.86
21623;BME280;10973;46.706;12.340;2022-07-29T08:05:12;87667.09;;;19.60;54.52
21623;BME280;10973;46.706;12.340;2022-07-29T08:07:39;87664.06;;;19.58;54.13
21623;BME280;10973;46.706;12.340;2022-07-29T08:10:07;87665.50;;;19.62;54.42
21623;BME280;10973;46.706;12.340;2022-07-29T08:12:34;87660.88;;;19.63;53.97
21623;BME280;10973;46.706;12.340;2022-07-29T08:15:02;87656.72;;;19.62;54.70
21623;BME280;10973;46.706;12.340;2022-07-29T08:17:29;87662.31;;;19.67;54.21
21623;BME280;10973;46.706;12.340;2022-07-29T08:20:01;87663.00;;;19.71;53.74
21623;BME280;10973;46.706;12.340;2022-07-29T08:22:29;87662.25;;;19.71;54.03
21623;BME280;10973;46.706;12.340;2022-07-29T08:24:56;87655.31;;;19.73;53.86
21623;BME280;10973;46.706;12.340;2022-07-29T08:27:24;87652.22;;;19.75;54.11
21623;BME280;10973;46.706;12.340;2022-07-29T08:30:11;87645.38;;;19.74;53.25
21623;BME280;10973;46.706;12.340;2022-07-29T08:32:38;87653.63;;;19.79;53.05
21623;BME280;10973;46.706;12.340;2022-07-29T08:35:23;87653.56;;;19.83;53.05
21623;BME280;10973;46.706;12.340;2022-07-29T08:37:52;87648.78;;;19.90;52.87
21623;BME280;10973;46.706;12.340;2022-07-29T08:40:20;87642.50;;;19.97;53.85
21623;BME280;10973;46.706;12.340;2022-07-29T08:43:07;87642.00;;;20.02;53.48
21623;BME280;10973;46.706;12.340;2022-07-29T08:45:50;87640.31;;;20.08;52.76
21623;BME280;10973;46.706;12.340;2022-07-29T08:48:20;87633.22;;;20.02;50.84
21623;BME280;10973;46.706;12.340;2022-07-29T08:50:54;87640.53;;;20.01;50.38
21623;BME280;10973;46.706;12.340;2022-07-29T08:53:26;87639.75;;;20.01;50.76
21623;BME280;10973;46.706;12.340;2022-07-29T08:55:54;87634.66;;;20.06;50.05
21623;BME280;10973;46.706;12.340;2022-07-29T08:58:23;87634.16;;;20.11;50.35
21623;BME280;10973;46.706;12.340;2022-07-29T09:00:55;87636.22;;;20.20;50.83
21623;BME280;10973;46.706;12.340;2022-07-29T09:03:29;87643.28;;;20.30;50.96
21623;BME280;10973;46.706;12.340;2022-07-29T09:05:58;87638.06;;;20.39;50.61
21623;BME280;10973;46.706;12.340;2022-07-29T09:08:27;87644.41;;;20.45;50.91
21623;BME280;10973;46.706;12.340;2022-07-29T09:10:55;87632.34;;;20.53;50.63
21623;BME280;10973;46.706;12.340;2022-07-29T09:13:22;87635.25;;;20.58;50.03
21623;BME280;10973;46.706;12.340;2022-07-29T09:15:50;87626.28;;;20.65;50.44
21623;BME280;10973;46.706;12.340;2022-07-29T09:18:42;87629.63;;;20.69;50.64
21623;BME280;10973;46.706;12.340;2022-07-29T09:21:12;87626.75;;;20.76;50.41
21623;BME280;10973;46.706;12.340;2022-07-29T09:23:39;87616.69;;;20.80;50.25
21623;BME280;10973;46.706;12.340;2022-07-29T09:26:07;87618.19;;;20.81;49.63
21623;BME280;10973;46.706;12.340;2022-07-29T09:28:41;87616.50;;;20.87;49.29
21623;BME280;10973;46.706;12.340;2022-07-29T09:31:09;87608.78;;;20.89;48.60
21623;BME280;10973;46.706;12.340;2022-07-29T09:33:36;87600.97;;;20.95;48.95
21623;BME280;10973;46.706;12.340;2022-07-29T09:36:06;87588.97;;;20.99;49.62
21623;BME280;10973;46.706;12.340;2022-07-29T09:38:35;87600.00;;;21.01;49.49
21623;BME280;10973;46.706;12.340;2022-07-29T09:41:04;87590.81;;;21.02;48.60
21623;BME280;10973;46.706;12.340;2022-07-29T09:43:33;87588.28;;;21.11;49.06
21623;BME280;10973;46.706;12.340;2022-07-29T09:46:11;87588.06;;;21.18;49.80
21623;BME280;10973;46.706;12.340;2022-07-29T09:48:39;87588.72;;;21.22;50.07
21623;BME280;10973;46.706;12.340;2022-07-29T09:51:20;87584.22;;;21.32;49.83
21623;BME280;10973;46.706;12.340;2022-07-29T09:53:55;87588.94;;;21.41;49.51
21623;BME280;10973;46.706;12.340;2022-07-29T09:56:42;87591.84;;;21.46;48.99
21623;BME280;10973;46.706;12.340;2022-07-29T09:59:09;87581.31;;;21.52;49.27
21623;BME280;10973;46.706;12.340;2022-07-29T10:01:37;87583.03;;;21.58;48.59
21623;BME280;10973;46.706;12.340;2022-07-29T10:04:04;87586.38;;;21.62;48.22
21623;BME280;10973;46.706;12.340;2022-07-29T10:06:31;87581.00;;;21.62;46.95
21623;BME280;10973;46.706;12.340;2022-07-29T10:09:09;87580.03;;;21.69;46.62
21623;BME280;10973;46.706;12.340;2022-07-29T10:11:37;87571.75;;;21.76;47.79
21623;BME280;10973;46.706;12.340;2022-07-29T10:14:16;87573.16;;;21.80;47.29
21623;BME280;10973;46.706;12.340;2022-07-29T10:16:43;87557.59;;;21.88;47.02
21623;BME280;10973;46.706;12.340;2022-07-29T10:19:13;87561.66;;;21.92;47.83
21623;BME280;10973;46.706;12.340;2022-07-29T10:21:40;87561.88;;;21.98;47.06
21623;BME280;10973;46.706;12.340;2022-07-29T10:24:09;87561.19;;;22.07;45.00
21623;BME280;10973;46.706;12.340;2022-07-29T10:26:42;87550.22;;;22.14;44.57
21623;BME280;10973;46.706;12.340;2022-07-29T10:29:09;87552.25;;;22.22;46.35
21623;BME280;10973;46.706;12.340;2022-07-29T10:43:28;87557.50;;;22.82;44.13
21623;BME280;10973;46.706;12.340;2022-07-29T10:46:00;87552.19;;;22.91;43.70
21623;BME280;10973;46.706;12.340;2022-07-29T10:48:28;87551.38;;;23.03;43.70
21623;BME280;10973;46.706;12.340;2022-07-29T10:50:58;87554.09;;;23.12;42.94
21623;BME280;10973;46.706;12.340;2022-07-29T10:53:50;87554.94;;;23.30;43.04
21623;BME280;10973;46.706;12.340;2022-07-29T10:56:31;87549.81;;;23.45;41.39
21623;BME280;10973;46.706;12.340;2022-07-29T11:01:49;87550.53;;;23.85;39.32
21623;BME280;10973;46.706;12.340;2022-07-29T11:07:11;87541.22;;;24.17;38.91
21623;BME280;10973;46.706;12.340;2022-07-29T11:09:41;87536.47;;;24.30;37.97
21623;BME280;10973;46.706;12.340;2022-07-29T11:15:09;87526.41;;;24.58;35.18
21623;BME280;10973;46.706;12.340;2022-07-29T11:31:38;87526.00;;;25.37;31.92
21623;BME280;10973;46.706;12.340;2022-07-29T11:47:58;87508.44;;;25.93;28.61
21623;BME280;10973;46.706;12.340;2022-07-29T11:50:46;87508.63;;;26.13;28.13
21623;BME280;10973;46.706;12.340;2022-07-29T11:53:14;87503.13;;;26.31;28.56
21623;BME280;10973;46.706;12.340;2022-07-29T11:55:42;87508.09;;;26.47;27.65
21623;BME280;10973;46.706;12.340;2022-07-29T11:58:22;87500.31;;;26.64;27.19
21623;BME280;10973;46.706;12.340;2022-07-29T12:00:52;87499.66;;;26.78;26.76
21623;BME280;10973;46.706;12.340;2022-07-29T12:03:28;87499.28;;;26.85;27.55
21623;BME280;10973;46.706;12.340;2022-07-29T12:06:14;87489.69;;;26.99;26.83
21623;BME280;10973;46.706;12.340;2022-07-29T12:09:08;87488.66;;;27.11;26.03
21623;BME280;10973;46.706;12.340;2022-07-29T12:11:40;87490.91;;;27.27;28.62
21623;BME280;10973;46.706;12.340;2022-07-29T12:14:31;87482.72;;;27.50;30.29
21623;BME280;10973;46.706;12.340;2022-07-29T12:17:00;87482.38;;;27.78;29.15
21623;BME280;10973;46.706;12.340;2022-07-29T12:19:27;87479.44;;;27.96;29.85
21623;BME280;10973;46.706;12.340;2022-07-29T12:21:57;87472.13;;;28.16;29.79
21623;BME280;10973;46.706;12.340;2022-07-29T12:24:42;87471.03;;;28.28;28.15
21623;BME280;10973;46.706;12.340;2022-07-29T12:27:11;87467.03;;;28.44;28.71
21623;BME280;10973;46.706;12.340;2022-07-29T12:29:39;87470.47;;;28.59;29.09
21623;BME280;10973;46.706;12.340;2022-07-29T12:32:13;87467.66;;;28.74;28.84
21623;BME280;10973;46.706;12.340;2022-07-29T12:34:46;87462.16;;;28.88;28.94
21623;BME280;10973;46.706;12.340;2022-07-29T12:37:14;87461.06;;;29.01;31.01
21623;BME280;10973;46.706;12.340;2022-07-29T12:39:41;87461.63;;;29.10;30.09
21623;BME280;10973;46.706;12.340;2022-07-29T12:42:14;87459.41;;;29.09;30.41
21623;BME280;10973;46.706;12.340;2022-07-29T12:44:50;87457.19;;;29.13;30.24
21623;BME280;10973;46.706;12.340;2022-07-29T12:47:19;87457.19;;;29.13;30.35
21623;BME280;10973;46.706;12.340;2022-07-29T12:49:47;87454.03;;;29.14;29.82
21623;BME280;10973;46.706;12.340;2022-07-29T12:54:56;87452.88;;;29.21;30.92
21623;BME280;10973;46.706;12.340;2022-07-29T12:57:24;87440.84;;;29.27;31.51
21623;BME280;10973;46.706;12.340;2022-07-29T13:00:23;87438.16;;;29.33;30.47
21623;BME280;10973;46.706;12.340;2022-07-29T13:02:58;87444.16;;;29.42;28.84
21623;BME280;10973;46.706;12.340;2022-07-29T13:05:45;87451.41;;;29.51;30.35
21623;BME280;10973;46.706;12.340;2022-07-29T13:08:17;87450.25;;;29.63;30.21
21623;BME280;10973;46.706;12.340;2022-07-29T13:10:48;87439.63;;;29.59;30.09
21623;BME280;10973;46.706;12.340;2022-07-29T13:13:16;87438.56;;;29.51;31.17
21623;BME280;10973;46.706;12.340;2022-07-29T13:15:45;87436.63;;;29.26;30.51
21623;BME280;10973;46.706;12.340;2022-07-29T13:18:33;87439.09;;;28.99;29.88
21623;BME280;10973;46.706;12.340;2022-07-29T13:21:14;87437.81;;;28.74;31.09
21623;BME280;10973;46.706;12.340;2022-07-29T13:23:44;87431.09;;;28.49;31.16
21623;BME280;10973;46.706;12.340;2022-07-29T13:26:12;87430.63;;;28.31;32.06
21623;BME280;10973;46.706;12.340;2022-07-29T13:28:39;87432.16;;;28.11;31.85
21623;BME280;10973;46.706;12.340;2022-07-29T13:31:10;87441.34;;;27.99;33.21
21623;BME280;10973;46.706;12.340;2022-07-29T13:33:37;87441.38;;;27.85;33.00
21623;BME280;10973;46.706;12.340;2022-07-29T13:36:05;87442.41;;;27.73;32.52
21623;BME280;10973;46.706;12.340;2022-07-29T13:38:32;87435.06;;;27.58;33.42
21623;BME280;10973;46.706;12.340;2022-07-29T13:41:01;87433.34;;;27.41;33.44
21623;BME280;10973;46.706;12.340;2022-07-29T13:43:29;87428.47;;;27.30;33.79
21623;BME280;10973;46.706;12.340;2022-07-29T13:45:56;87426.16;;;27.23;34.64
21623;BME280;10973;46.706;12.340;2022-07-29T13:48:23;87417.38;;;27.14;35.35
21623;BME280;10973;46.706;12.340;2022-07-29T13:50:51;87420.94;;;27.05;35.56
21623;BME280;10973;46.706;12.340;2022-07-29T13:53:18;87413.19;;;26.83;34.65
21623;BME280;10973;46.706;12.340;2022-07-29T13:55:53;87416.38;;;26.82;36.13
21623;BME280;10973;46.706;12.340;2022-07-29T13:58:20;87403.34;;;26.71;35.68
21623;BME280;10973;46.706;12.340;2022-07-29T14:00:47;87405.16;;;26.60;35.62
21623;BME280;10973;46.706;12.340;2022-07-29T14:03:15;87406.72;;;26.52;34.91
21623;BME280;10973;46.706;12.340;2022-07-29T14:05:42;87400.34;;;26.40;34.57
21623;BME280;10973;46.706;12.340;2022-07-29T14:08:10;87403.88;;;26.32;34.95
21623;BME280;10973;46.706;12.340;2022-07-29T14:10:37;87391.19;;;26.23;35.55